Terminal Aerodrome Forecast
Issued by NWS

Home | Current Version | Previous Version | Text Only | Print | Product List | Glossary On
Versions: 1 2 3 4 5 6 7 8 9 10 11 12 13 14 15 16 17 18 19 20 21 22 23 24
000
FTUS46 KLOX 240500
TAFSBA
TAF
KSBA 240532Z 2406/2506 02008KT P6SM SCT200
     FM241000 VRB03KT P6SM SCT200
     FM241600 16006KT P6SM BKN200
     FM250100 VRB03KT P6SM FEW200=

USA.gov is the U.S. government's official web portal to all federal, state and local government web resources and services.